createdAt,value
2023-05-14T00:02:08.710Z,50.65
2023-05-14T00:04:35.627Z,49.95
2023-05-14T00:07:02.649Z,49.79
2023-05-14T00:09:30.601Z,49.58
2023-05-14T00:11:57.420Z,49.68
2023-05-14T00:14:24.484Z,50.01
2023-05-14T00:16:51.650Z,49.33
2023-05-14T00:19:19.165Z,47.88
2023-05-14T00:21:47.488Z,46.44
2023-05-14T00:24:14.504Z,46.65
2023-05-14T00:26:41.703Z,47.61
2023-05-14T00:29:08.630Z,47.88
2023-05-14T00:31:35.784Z,48.40
2023-05-14T00:34:03.208Z,48.61
2023-05-14T00:36:30.111Z,48.69
2023-05-14T00:38:56.999Z,48.47
2023-05-14T00:41:23.913Z,48.24
2023-05-14T00:43:50.916Z,47.60
2023-05-14T00:46:18.149Z,46.97
2023-05-14T00:48:45.357Z,46.74
2023-05-14T00:51:12.219Z,46.89
2023-05-14T00:53:39.270Z,47.06
2023-05-14T00:56:07.006Z,47.12
2023-05-14T00:58:33.850Z,47.33
2023-05-14T01:01:00.991Z,47.32
2023-05-14T01:03:28.984Z,47.06
2023-05-14T01:06:03.456Z,46.65
2023-05-14T01:08:36.843Z,46.17
2023-05-14T01:11:12.001Z,45.62
2023-05-14T01:13:43.088Z,45.36
2023-05-14T01:16:14.102Z,45.24
2023-05-14T01:18:41.684Z,45.04
2023-05-14T01:21:38.402Z,44.90
2023-05-14T01:24:05.672Z,45.03
2023-05-14T01:26:32.910Z,44.96
2023-05-14T01:29:22.410Z,44.58
2023-05-14T01:31:55.680Z,44.73
2023-05-14T01:34:23.867Z,45.30
2023-05-14T01:36:51.480Z,45.20
2023-05-14T01:39:19.346Z,45.53
2023-05-14T01:41:47.100Z,45.82
2023-05-14T01:44:14.102Z,46.11
2023-05-14T01:46:41.247Z,46.42
2023-05-14T01:49:08.802Z,46.30
2023-05-14T01:51:36.029Z,46.10
2023-05-14T01:54:02.907Z,45.95
2023-05-14T01:56:29.959Z,45.94
2023-05-14T01:58:57.362Z,46.05
2023-05-14T02:01:26.276Z,46.10
2023-05-14T02:03:53.365Z,46.12
2023-05-14T02:06:20.593Z,46.35
2023-05-14T02:08:48.539Z,46.72
2023-05-14T02:11:15.760Z,47.13
2023-05-14T02:13:42.742Z,48.10
2023-05-14T02:16:09.791Z,48.80
2023-05-14T02:18:36.802Z,49.01
2023-05-14T02:21:03.868Z,49.18
2023-05-14T02:23:40.443Z,49.41
2023-05-14T02:26:10.005Z,50.01
2023-05-14T02:28:37.032Z,50.49
2023-05-14T02:31:03.948Z,50.33
2023-05-14T02:33:31.106Z,50.39
2023-05-14T02:35:58.086Z,50.71
2023-05-14T02:38:26.374Z,51.03
2023-05-14T02:40:53.292Z,51.18
2023-05-14T02:43:20.173Z,51.25
2023-05-14T02:45:47.393Z,51.41
2023-05-14T02:48:14.346Z,51.67
2023-05-14T02:50:41.796Z,51.63
2023-05-14T02:53:09.051Z,51.62
2023-05-14T02:55:36.483Z,51.85
2023-05-14T02:58:03.543Z,52.16
2023-05-14T03:00:30.487Z,52.25
2023-05-14T03:02:58.073Z,52.24
2023-05-14T03:05:25.349Z,52.10
2023-05-14T03:07:53.763Z,52.17
2023-05-14T03:10:21.043Z,52.53
2023-05-14T03:12:48.233Z,52.81
2023-05-14T03:15:15.226Z,52.68
2023-05-14T03:17:42.230Z,52.71
2023-05-14T03:20:09.454Z,52.67
2023-05-14T03:22:36.541Z,52.65
2023-05-14T03:25:04.015Z,52.77
2023-05-14T03:27:30.840Z,52.74
2023-05-14T03:29:57.773Z,52.43
2023-05-14T03:32:24.790Z,52.18
2023-05-14T03:34:51.757Z,52.51
2023-05-14T03:37:18.710Z,52.58
2023-05-14T03:39:45.941Z,52.07
2023-05-14T03:42:12.782Z,51.68
2023-05-14T03:44:40.886Z,51.36
2023-05-14T03:47:08.675Z,50.93
2023-05-14T03:49:35.726Z,50.49
2023-05-14T03:52:03.036Z,50.07
2023-05-14T03:54:30.150Z,50.02
2023-05-14T03:56:57.165Z,50.10
2023-05-14T03:59:24.063Z,50.04
2023-05-14T04:01:51.023Z,49.98
2023-05-14T04:04:19.565Z,49.83
2023-05-14T04:06:46.482Z,49.43
2023-05-14T04:09:13.363Z,49.38
2023-05-14T04:11:40.433Z,49.35
2023-05-14T04:14:07.433Z,49.26
2023-05-14T04:16:34.465Z,49.08
2023-05-14T04:19:02.646Z,48.85
2023-05-14T04:21:29.842Z,48.28
2023-05-14T04:23:56.932Z,47.56
2023-05-14T04:26:23.849Z,47.14
2023-05-14T04:28:50.897Z,46.91
2023-05-14T04:31:17.915Z,46.73
2023-05-14T04:33:44.868Z,46.37
2023-05-14T04:36:12.783Z,46.30
2023-05-14T04:38:40.015Z,46.19
2023-05-14T04:41:07.269Z,45.66
2023-05-14T04:43:34.308Z,45.32
2023-05-14T04:46:01.315Z,44.81
2023-05-14T04:48:28.314Z,44.32
2023-05-14T04:50:55.348Z,43.70
2023-05-14T04:53:22.453Z,42.96
2023-05-14T04:55:49.260Z,42.40
2023-05-14T04:58:16.185Z,42.11
2023-05-14T05:00:43.131Z,42.01
2023-05-14T05:03:10.262Z,42.02
2023-05-14T05:05:37.315Z,42.21
2023-05-14T05:08:04.664Z,41.73
2023-05-14T05:10:31.568Z,41.39
2023-05-14T05:12:58.416Z,42.75
2023-05-14T05:15:26.564Z,43.22
2023-05-14T05:17:53.771Z,42.66
2023-05-14T05:20:20.986Z,42.02
2023-05-14T05:22:48.063Z,41.16
2023-05-14T05:25:15.199Z,40.47
2023-05-14T05:27:42.106Z,39.13
2023-05-14T05:30:09.674Z,38.80
2023-05-14T05:32:36.857Z,38.43
2023-05-14T05:35:03.956Z,38.12
2023-05-14T05:37:31.916Z,38.05
2023-05-14T05:39:58.925Z,38.03
2023-05-14T05:42:26.428Z,38.16
2023-05-14T05:44:53.412Z,37.48
2023-05-14T05:47:20.208Z,38.47
2023-05-14T05:49:47.142Z,38.71
2023-05-14T05:52:14.167Z,38.67
2023-05-14T05:54:41.106Z,37.90
2023-05-14T05:57:07.995Z,37.19
2023-05-14T05:59:35.013Z,36.64
2023-05-14T06:02:02.080Z,36.47
2023-05-14T06:04:29.105Z,36.54
2023-05-14T06:06:56.080Z,36.55
2023-05-14T06:09:23.000Z,36.27
2023-05-14T06:11:49.930Z,36.25
2023-05-14T06:14:16.860Z,36.38
2023-05-14T06:16:43.843Z,36.33
2023-05-14T06:19:11.193Z,36.05
2023-05-14T06:21:38.317Z,35.78
2023-05-14T06:24:05.623Z,35.89
2023-05-14T06:26:32.616Z,36.17
2023-05-14T06:28:59.563Z,36.29
2023-05-14T06:31:26.636Z,36.12
2023-05-14T06:33:53.442Z,36.20
2023-05-14T06:36:20.375Z,36.43
2023-05-14T06:38:47.242Z,36.23
2023-05-14T06:41:14.187Z,35.71
2023-05-14T06:43:41.134Z,35.39
2023-05-14T06:46:07.998Z,35.35
2023-05-14T06:48:34.968Z,35.50
2023-05-14T06:51:03.409Z,35.68
2023-05-14T06:55:48.037Z,35.53
2023-05-14T06:58:14.933Z,34.45
2023-05-14T07:00:42.788Z,34.53
2023-05-14T07:03:09.720Z,34.83
2023-05-14T07:05:36.888Z,34.34
2023-05-14T07:08:04.064Z,34.00
2023-05-14T07:10:31.141Z,33.74
2023-05-14T07:12:58.183Z,33.58
2023-05-14T07:15:25.081Z,33.36
2023-05-14T07:17:51.957Z,33.39
2023-05-14T07:20:18.974Z,33.66
2023-05-14T07:22:45.810Z,33.48
2023-05-14T07:25:12.666Z,33.30
2023-05-14T07:27:39.579Z,33.12
2023-05-14T07:30:07.772Z,32.69
2023-05-14T07:32:34.691Z,30.64
2023-05-14T07:35:01.979Z,30.53
2023-05-14T07:37:28.923Z,30.19
2023-05-14T07:39:56.380Z,30.05
2023-05-14T07:42:34.979Z,29.16
2023-05-14T07:45:03.748Z,27.56
2023-05-14T07:47:30.959Z,27.34
2023-05-14T07:49:58.312Z,27.08
2023-05-14T07:52:25.267Z,26.41
2023-05-14T07:54:57.036Z,26.41
2023-05-14T07:57:23.895Z,26.18
2023-05-14T07:59:51.020Z,26.62
2023-05-14T08:02:18.166Z,26.35
2023-05-14T08:04:45.287Z,25.85
2023-05-14T08:07:12.236Z,25.97
2023-05-14T08:09:39.261Z,26.57
2023-05-14T08:12:06.778Z,26.51
2023-05-14T08:14:33.567Z,26.29
2023-05-14T08:17:00.503Z,26.05
2023-05-14T08:19:27.912Z,26.14
2023-05-14T08:21:54.743Z,26.26
2023-05-14T08:24:21.653Z,26.02
2023-05-14T08:26:48.734Z,26.37
2023-05-14T08:29:16.547Z,27.18
2023-05-14T08:31:44.187Z,26.95
2023-05-14T08:34:11.128Z,25.91
2023-05-14T08:36:39.038Z,25.93
2023-05-14T08:39:07.997Z,25.89
2023-05-14T08:41:35.601Z,25.91
2023-05-14T08:44:26.332Z,25.59
2023-05-14T08:46:53.121Z,25.70
2023-05-14T08:49:40.967Z,24.57
2023-05-14T08:52:11.635Z,24.60
2023-05-14T08:54:39.196Z,23.43
2023-05-14T08:57:06.365Z,23.59
2023-05-14T08:59:34.970Z,23.59
2023-05-14T09:02:02.975Z,23.75
2023-05-14T09:04:30.502Z,23.15
2023-05-14T09:06:58.408Z,23.25
2023-05-14T09:09:26.676Z,23.35
2023-05-14T09:11:58.329Z,23.04
2023-05-14T09:14:28.442Z,22.97
2023-05-14T09:16:55.553Z,22.75
2023-05-14T09:19:22.681Z,22.52
2023-05-14T09:21:49.654Z,22.69
2023-05-14T09:24:21.320Z,22.77
2023-05-14T09:26:55.525Z,22.33
2023-05-14T09:29:25.117Z,23.19
2023-05-14T09:31:52.122Z,22.78
2023-05-14T09:34:26.741Z,22.65
2023-05-14T09:37:02.463Z,22.42
2023-05-14T09:39:29.810Z,22.54
2023-05-14T09:41:56.835Z,22.37
2023-05-14T09:44:24.406Z,22.95
2023-05-14T09:46:51.970Z,22.57
2023-05-14T09:49:18.901Z,22.51
2023-05-14T09:51:45.870Z,22.40
2023-05-14T09:54:12.966Z,22.11
2023-05-14T09:56:40.104Z,22.35
2023-05-14T09:59:07.097Z,22.04
2023-05-14T10:01:34.124Z,21.81
2023-05-14T10:04:04.005Z,21.92
2023-05-14T10:06:33.665Z,22.08
2023-05-14T10:09:04.189Z,22.19
2023-05-14T10:11:34.938Z,22.08
2023-05-14T10:14:09.593Z,22.07
2023-05-14T10:16:45.662Z,22.12
2023-05-14T10:19:12.832Z,22.22
2023-05-14T10:21:41.039Z,22.44
2023-05-14T10:24:08.515Z,22.53
2023-05-14T10:26:40.331Z,22.08
2023-05-14T10:29:07.173Z,22.22
2023-05-14T10:31:50.842Z,22.26
2023-05-14T10:34:46.254Z,22.26
2023-05-14T10:37:15.516Z,22.12
2023-05-14T10:39:46.468Z,22.11
2023-05-14T10:42:15.598Z,22.02
2023-05-14T10:44:51.659Z,21.57
2023-05-14T10:47:18.548Z,21.80
2023-05-14T10:49:49.131Z,21.67
2023-05-14T10:52:18.647Z,21.92
2023-05-14T10:54:52.372Z,21.46
2023-05-14T10:57:19.827Z,21.48
2023-05-14T10:59:53.373Z,21.20
2023-05-14T11:02:27.394Z,21.69
2023-05-14T11:05:11.271Z,21.49
2023-05-14T11:07:44.594Z,21.39
2023-05-14T11:10:12.926Z,21.48
2023-05-14T11:12:41.692Z,21.74
2023-05-14T11:15:10.058Z,21.33
2023-05-14T11:17:37.623Z,21.13
2023-05-14T11:20:08.201Z,21.00
2023-05-14T11:22:35.879Z,20.68
2023-05-14T11:25:02.905Z,21.45
2023-05-14T11:27:29.847Z,21.39
2023-05-14T11:29:56.960Z,20.77
2023-05-14T11:32:24.120Z,21.18
2023-05-14T11:34:51.562Z,21.41
2023-05-14T11:37:18.765Z,20.78
2023-05-14T11:39:49.916Z,20.39
2023-05-14T11:42:18.783Z,20.26
2023-05-14T11:44:50.513Z,19.74
2023-05-14T11:47:19.005Z,19.75
2023-05-14T11:49:46.199Z,20.32
2023-05-14T11:52:19.488Z,20.49
2023-05-14T11:54:46.870Z,20.45
2023-05-14T11:57:18.950Z,20.55
2023-05-14T11:59:46.187Z,20.25
2023-05-14T12:02:14.223Z,20.36
2023-05-14T12:04:41.934Z,19.91
2023-05-14T12:07:13.151Z,19.78
2023-05-14T12:09:49.587Z,19.70
2023-05-14T12:12:25.865Z,19.75
2023-05-14T12:14:53.210Z,19.92
2023-05-14T12:17:21.390Z,20.38
2023-05-14T12:20:04.501Z,20.43
2023-05-14T12:22:31.563Z,19.80
2023-05-14T12:24:59.645Z,19.37
2023-05-14T12:27:28.021Z,19.56
2023-05-14T12:30:19.053Z,19.23
2023-05-14T12:32:51.651Z,19.70
2023-05-14T12:35:19.162Z,19.36
2023-05-14T12:37:46.324Z,18.42
2023-05-14T12:40:13.801Z,18.91
2023-05-14T12:42:41.138Z,18.69
2023-05-14T12:45:08.771Z,18.75
2023-05-14T12:47:36.560Z,18.91
2023-05-14T12:50:03.842Z,17.76
2023-05-14T12:52:37.560Z,17.37
2023-05-14T12:55:10.135Z,17.86
2023-05-14T13:01:19.093Z,18.07
2023-05-14T13:04:37.538Z,17.49
2023-05-14T13:07:09.160Z,17.44
2023-05-14T13:09:36.432Z,17.61
2023-05-14T13:12:04.500Z,17.70
2023-05-14T13:14:36.539Z,17.60
2023-05-14T13:17:08.212Z,17.03
2023-05-14T13:19:35.377Z,16.86
2023-05-14T13:22:02.267Z,17.57
2023-05-14T13:25:12.408Z,17.37
2023-05-14T13:27:39.339Z,17.61
2023-05-14T13:30:07.061Z,17.51
2023-05-14T13:32:33.977Z,17.40
2023-05-14T13:35:00.971Z,17.04
2023-05-14T13:37:27.874Z,17.15
2023-05-14T13:39:54.847Z,17.18
2023-05-14T13:42:21.891Z,17.33
2023-05-14T13:44:49.042Z,17.44
2023-05-14T13:48:06.531Z,17.90
2023-05-14T13:50:33.618Z,18.22
2023-05-14T13:53:00.496Z,18.49
2023-05-14T13:55:27.435Z,19.08
2023-05-14T13:57:55.092Z,19.52
2023-05-14T14:00:22.232Z,19.86
2023-05-14T14:02:49.293Z,20.22
2023-05-14T14:05:29.820Z,20.76
2023-05-14T14:08:23.726Z,21.83
2023-05-14T14:11:00.599Z,22.65
2023-05-14T14:14:41.586Z,23.14
2023-05-14T14:17:09.257Z,23.22
2023-05-14T14:19:43.127Z,23.41
2023-05-14T14:22:14.197Z,23.62
2023-05-14T14:24:41.133Z,23.63
2023-05-14T14:27:08.145Z,24.30
2023-05-14T14:29:36.871Z,24.63
2023-05-14T14:32:04.667Z,24.67
2023-05-14T14:35:15.641Z,24.28
2023-05-14T14:38:09.716Z,23.43
2023-05-14T14:40:49.341Z,22.11
2023-05-14T14:43:19.204Z,21.84
2023-05-14T14:46:17.868Z,21.72
2023-05-14T14:48:50.800Z,21.73
2023-05-14T14:51:17.731Z,21.83
2023-05-14T14:54:11.144Z,22.33
2023-05-14T14:56:38.190Z,22.95
2023-05-14T14:59:05.140Z,23.27
2023-05-14T15:01:32.118Z,23.56
2023-05-14T15:03:58.967Z,23.62
2023-05-14T15:06:28.929Z,23.69
2023-05-14T15:08:56.006Z,24.09
2023-05-14T15:11:22.886Z,24.16
2023-05-14T15:13:50.046Z,24.41
2023-05-14T15:16:52.688Z,24.60
2023-05-14T15:19:21.462Z,24.62
2023-05-14T15:21:48.303Z,24.97
2023-05-14T15:24:40.907Z,25.37
2023-05-14T15:27:07.802Z,25.51
2023-05-14T15:29:34.741Z,25.59
2023-05-14T15:32:02.995Z,25.70
2023-05-14T15:34:30.177Z,25.54
2023-05-14T15:36:59.267Z,25.61
2023-05-14T15:40:01.236Z,25.73
2023-05-14T15:42:28.072Z,25.86
2023-05-14T15:45:01.078Z,25.80
2023-05-14T15:47:28.065Z,26.01
2023-05-14T15:49:54.913Z,25.93
2023-05-14T15:52:22.356Z,25.77
2023-05-14T15:54:49.783Z,25.59
2023-05-14T15:57:19.145Z,25.68
2023-05-14T15:59:50.110Z,25.91
2023-05-14T16:02:17.035Z,25.75
2023-05-14T16:04:54.429Z,25.54
2023-05-14T16:07:21.276Z,24.83
2023-05-14T16:09:48.129Z,24.55
2023-05-14T16:12:15.184Z,24.45
2023-05-14T16:14:42.845Z,24.27
2023-05-14T16:17:09.789Z,24.26
2023-05-14T16:19:36.838Z,24.45
2023-05-14T16:22:04.192Z,24.59
2023-05-14T16:24:31.031Z,25.16
2023-05-14T16:26:58.187Z,25.33
2023-05-14T16:29:25.233Z,25.19
2023-05-14T16:31:52.228Z,24.97
2023-05-14T16:34:22.398Z,24.90
2023-05-14T16:36:49.727Z,24.99
2023-05-14T16:39:16.803Z,25.16
2023-05-14T16:41:43.644Z,25.32
2023-05-14T16:44:13.664Z,25.85
2023-05-14T16:46:40.856Z,26.60
2023-05-14T16:49:07.972Z,27.95
2023-05-14T16:51:53.746Z,28.99
2023-05-14T16:54:37.388Z,29.34
2023-05-14T16:57:30.133Z,29.09
2023-05-14T16:59:57.082Z,29.32
2023-05-14T17:02:24.022Z,29.83
2023-05-14T17:04:51.084Z,30.44
2023-05-14T17:07:43.990Z,30.36
2023-05-14T17:10:11.091Z,30.61
2023-05-14T17:12:37.976Z,30.97
2023-05-14T17:15:07.200Z,31.10
2023-05-14T17:17:34.197Z,31.08
2023-05-14T17:20:01.110Z,31.03
2023-05-14T17:22:28.170Z,31.27
2023-05-14T17:24:55.201Z,31.30
2023-05-14T17:27:22.105Z,31.55
2023-05-14T17:30:14.074Z,31.68
2023-05-14T17:32:41.191Z,31.82
2023-05-14T17:35:10.400Z,32.24
2023-05-14T17:37:37.376Z,32.59
2023-05-14T17:40:04.838Z,32.87
2023-05-14T17:42:31.776Z,33.09
2023-05-14T17:44:59.161Z,33.62
2023-05-14T17:47:26.433Z,33.90
2023-05-14T17:49:53.460Z,34.23
2023-05-14T17:52:20.804Z,34.19
2023-05-14T17:54:47.748Z,34.42
2023-05-14T17:57:14.797Z,34.88
2023-05-14T17:59:43.045Z,34.93
2023-05-14T18:02:10.742Z,35.28
2023-05-14T18:04:37.998Z,35.51
2023-05-14T18:07:05.758Z,35.78
2023-05-14T18:09:32.928Z,36.08
2023-05-14T18:11:59.916Z,36.43
2023-05-14T18:14:27.122Z,36.70
2023-05-14T18:16:56.202Z,36.99
2023-05-14T18:22:56.156Z,37.21
2023-05-14T18:25:35.588Z,38.00
2023-05-14T18:28:02.848Z,39.49
2023-05-14T18:30:29.790Z,39.60
2023-05-14T18:32:56.661Z,39.83
2023-05-14T18:35:23.653Z,39.60
2023-05-14T18:38:20.127Z,39.17
2023-05-14T18:40:47.026Z,39.24
2023-05-14T18:43:15.196Z,39.77
2023-05-14T18:45:42.471Z,40.77
2023-05-14T18:48:10.192Z,40.59
2023-05-14T18:50:39.213Z,40.22
2023-05-14T18:53:06.649Z,40.07
2023-05-14T18:55:37.231Z,40.81
2023-05-14T18:58:04.141Z,41.75
2023-05-14T19:00:31.139Z,42.13
2023-05-14T19:02:58.289Z,42.64
2023-05-14T19:05:25.459Z,43.09
2023-05-14T19:07:52.676Z,43.21
2023-05-14T19:23:49.333Z,44.10
2023-05-14T19:26:16.357Z,43.98
2023-05-14T19:28:43.790Z,44.26
2023-05-14T19:31:11.203Z,44.34
2023-05-14T19:33:38.135Z,44.45
2023-05-14T19:36:05.678Z,44.58
2023-05-14T19:38:32.747Z,44.92
2023-05-14T19:40:59.560Z,45.15
2023-05-14T19:43:28.054Z,45.37
2023-05-14T19:45:55.071Z,45.61
2023-05-14T19:48:22.040Z,45.94
2023-05-14T19:50:48.989Z,46.06
2023-05-14T19:53:53.591Z,46.16
2023-05-14T19:56:21.711Z,46.25
2023-05-14T19:58:48.645Z,46.54
2023-05-14T20:01:15.499Z,46.70
2023-05-14T20:03:42.478Z,46.79
2023-05-14T20:06:09.470Z,46.81
2023-05-14T20:08:36.697Z,46.88
2023-05-14T20:11:03.672Z,46.90
2023-05-14T20:13:35.524Z,46.91
2023-05-14T20:16:02.892Z,47.07
2023-05-14T20:18:29.894Z,47.31
2023-05-14T20:20:56.834Z,47.47
2023-05-14T20:23:23.781Z,47.45
2023-05-14T20:25:51.393Z,47.66
2023-05-14T20:28:18.158Z,47.91
2023-05-14T20:30:45.124Z,47.99
2023-05-14T20:33:13.524Z,48.37
2023-05-14T20:35:44.015Z,48.56
2023-05-14T20:38:13.030Z,49.10
2023-05-14T20:41:15.207Z,48.98
2023-05-14T20:43:42.163Z,49.35
2023-05-14T20:46:09.409Z,50.01
2023-05-14T20:48:36.394Z,50.53
2023-05-14T20:51:06.751Z,51.07
2023-05-14T20:53:34.082Z,51.19
2023-05-14T20:56:01.473Z,51.17
2023-05-14T20:58:28.480Z,51.14
2023-05-14T21:00:55.425Z,50.97
2023-05-14T21:03:22.313Z,50.95
2023-05-14T21:05:49.520Z,51.10
2023-05-14T21:08:16.834Z,51.68
2023-05-14T21:10:43.928Z,52.36
2023-05-14T21:13:10.884Z,52.32
2023-05-14T21:15:37.932Z,52.36
2023-05-14T21:18:04.851Z,52.59
2023-05-14T21:20:31.710Z,52.76
2023-05-14T21:22:58.556Z,52.76
2023-05-14T21:26:29.160Z,52.74
2023-05-14T21:28:56.136Z,52.38
2023-05-14T21:31:25.920Z,52.28
2023-05-14T21:33:53.410Z,52.17
2023-05-14T21:36:21.280Z,52.37
2023-05-14T21:38:48.146Z,52.99
2023-05-14T21:41:15.070Z,53.57
2023-05-14T21:43:42.010Z,53.89
2023-05-14T21:46:08.927Z,54.21
2023-05-14T21:48:35.842Z,54.59
2023-05-14T21:51:02.850Z,54.58
2023-05-14T21:53:29.650Z,54.49
2023-05-14T21:55:56.533Z,54.43
2023-05-14T21:58:23.345Z,54.45
2023-05-14T22:00:50.348Z,54.52
2023-05-14T22:03:17.474Z,54.46
2023-05-14T22:05:44.428Z,54.70
2023-05-14T22:08:11.467Z,55.16
2023-05-14T22:10:38.413Z,55.35
2023-05-14T22:13:05.343Z,55.63
2023-05-14T22:15:32.245Z,55.74
2023-05-14T22:17:59.163Z,55.86
2023-05-14T22:20:26.097Z,55.83
2023-05-14T22:22:53.239Z,55.98
2023-05-14T22:25:20.302Z,56.15
2023-05-14T22:27:47.153Z,56.20
2023-05-14T22:30:14.066Z,56.39
2023-05-14T22:32:41.062Z,56.31
2023-05-14T22:35:08.492Z,56.44
2023-05-14T22:37:35.526Z,56.51
2023-05-14T22:40:05.245Z,56.73
2023-05-14T22:42:32.117Z,56.90
2023-05-14T22:44:59.059Z,57.13
2023-05-14T22:47:26.001Z,57.37
2023-05-14T22:49:52.848Z,57.56
2023-05-14T22:52:19.720Z,57.64
2023-05-14T22:54:46.922Z,57.50
2023-05-14T22:57:13.862Z,57.46
2023-05-14T22:59:40.954Z,57.47
2023-05-14T23:02:08.129Z,57.42
2023-05-14T23:04:35.510Z,57.45
2023-05-14T23:07:02.471Z,57.56
2023-05-14T23:09:29.596Z,57.63
2023-05-14T23:11:56.394Z,57.84
2023-05-14T23:14:23.308Z,57.98
2023-05-14T23:16:50.390Z,58.20
2023-05-14T23:19:17.651Z,58.19
2023-05-14T23:21:44.866Z,58.27
2023-05-14T23:24:11.883Z,58.27
2023-05-14T23:26:38.697Z,58.43
2023-05-14T23:29:06.142Z,58.63
2023-05-14T23:31:33.044Z,58.84
2023-05-14T23:33:59.892Z,58.95
2023-05-14T23:36:26.787Z,58.90
2023-05-14T23:38:53.736Z,58.92
2023-05-14T23:41:21.816Z,58.93
2023-05-14T23:43:49.313Z,58.99
2023-05-14T23:46:16.241Z,59.04
2023-05-14T23:48:43.306Z,58.92
2023-05-14T23:51:10.564Z,58.71
2023-05-14T23:53:37.605Z,58.52
2023-05-14T23:56:04.483Z,58.38
2023-05-14T23:58:31.596Z,58.32
